sensor_id;sensor_type;location;lat;lon;timestamp;P1;durP1;ratioP1;P2;durP2;ratioP2
75426;SDS011;64007;50.632;13.700;2023-04-25T00:00:28;5.30;;;2.35;;
75426;SDS011;64007;50.632;13.700;2023-04-25T00:03:14;4.20;;;2.45;;
75426;SDS011;64007;50.632;13.700;2023-04-25T00:05:40;6.10;;;2.33;;
75426;SDS011;64007;50.632;13.700;2023-04-25T00:08:05;5.78;;;2.33;;
75426;SDS011;64007;50.632;13.700;2023-04-25T00:10:31;4.40;;;2.10;;
75426;SDS011;64007;50.632;13.700;2023-04-25T00:12:57;7.70;;;1.90;;
75426;SDS011;64007;50.632;13.700;2023-04-25T00:15:23;3.30;;;1.83;;
75426;SDS011;64007;50.632;13.700;2023-04-25T00:17:49;4.28;;;2.05;;
75426;SDS011;64007;50.632;13.700;2023-04-25T00:20:15;4.65;;;2.47;;
75426;SDS011;64007;50.632;13.700;2023-04-25T00:22:40;4.22;;;2.03;;
75426;SDS011;64007;50.632;13.700;2023-04-25T00:25:06;4.30;;;2.28;;
75426;SDS011;64007;50.632;13.700;2023-04-25T00:27:32;7.28;;;2.30;;
75426;SDS011;64007;50.632;13.700;2023-04-25T00:29:58;5.85;;;2.80;;
75426;SDS011;64007;50.632;13.700;2023-04-25T00:32:25;5.90;;;2.15;;
75426;SDS011;64007;50.632;13.700;2023-04-25T00:34:51;4.85;;;2.20;;
75426;SDS011;64007;50.632;13.700;2023-04-25T00:37:16;6.50;;;2.40;;
75426;SDS011;64007;50.632;13.700;2023-04-25T00:39:43;2.97;;;1.70;;
75426;SDS011;64007;50.632;13.700;2023-04-25T00:42:09;4.32;;;1.52;;
75426;SDS011;64007;50.632;13.700;2023-04-25T00:44:35;3.47;;;1.30;;
75426;SDS011;64007;50.632;13.700;2023-04-25T00:47:02;5.13;;;1.65;;
75426;SDS011;64007;50.632;13.700;2023-04-25T00:49:28;3.33;;;1.42;;
75426;SDS011;64007;50.632;13.700;2023-04-25T00:51:54;4.82;;;1.52;;
75426;SDS011;64007;50.632;13.700;2023-04-25T00:54:21;2.97;;;1.90;;
75426;SDS011;64007;50.632;13.700;2023-04-25T00:56:46;2.53;;;1.42;;
75426;SDS011;64007;50.632;13.700;2023-04-25T00:59:12;2.42;;;1.50;;
75426;SDS011;64007;50.632;13.700;2023-04-25T01:01:40;2.63;;;1.20;;
75426;SDS011;64007;50.632;13.700;2023-04-25T01:04:07;3.35;;;1.23;;
75426;SDS011;64007;50.632;13.700;2023-04-25T01:06:32;2.72;;;1.35;;
75426;SDS011;64007;50.632;13.700;2023-04-25T01:08:58;1.65;;;1.30;;
75426;SDS011;64007;50.632;13.700;2023-04-25T01:11:24;2.17;;;1.20;;
75426;SDS011;64007;50.632;13.700;2023-04-25T01:13:50;2.90;;;1.60;;
75426;SDS011;64007;50.632;13.700;2023-04-25T01:16:16;2.88;;;1.25;;
75426;SDS011;64007;50.632;13.700;2023-04-25T01:18:42;2.85;;;1.40;;
75426;SDS011;64007;50.632;13.700;2023-04-25T01:21:09;4.43;;;1.50;;
75426;SDS011;64007;50.632;13.700;2023-04-25T01:23:37;2.78;;;1.30;;
75426;SDS011;64007;50.632;13.700;2023-04-25T01:26:04;2.55;;;1.50;;
75426;SDS011;64007;50.632;13.700;2023-04-25T01:28:31;3.17;;;1.33;;
75426;SDS011;64007;50.632;13.700;2023-04-25T01:30:59;4.30;;;1.90;;
75426;SDS011;64007;50.632;13.700;2023-04-25T01:33:25;4.80;;;1.58;;
75426;SDS011;64007;50.632;13.700;2023-04-25T01:35:50;6.60;;;1.63;;
75426;SDS011;64007;50.632;13.700;2023-04-25T01:38:16;2.95;;;1.55;;
75426;SDS011;64007;50.632;13.700;2023-04-25T01:40:42;2.03;;;1.33;;
75426;SDS011;64007;50.632;13.700;2023-04-25T01:43:11;2.13;;;1.30;;
75426;SDS011;64007;50.632;13.700;2023-04-25T01:45:38;8.98;;;1.70;;
75426;SDS011;64007;50.632;13.700;2023-04-25T01:48:07;3.53;;;1.70;;
75426;SDS011;64007;50.632;13.700;2023-04-25T01:50:33;3.13;;;1.60;;
75426;SDS011;64007;50.632;13.700;2023-04-25T01:52:59;2.60;;;1.50;;
75426;SDS011;64007;50.632;13.700;2023-04-25T01:55:26;3.17;;;1.80;;
75426;SDS011;64007;50.632;13.700;2023-04-25T01:57:53;4.47;;;1.80;;
75426;SDS011;64007;50.632;13.700;2023-04-25T02:00:18;3.22;;;1.48;;
75426;SDS011;64007;50.632;13.700;2023-04-25T02:02:44;3.47;;;1.60;;
75426;SDS011;64007;50.632;13.700;2023-04-25T02:05:10;3.25;;;1.58;;
75426;SDS011;64007;50.632;13.700;2023-04-25T02:07:36;2.92;;;1.48;;
75426;SDS011;64007;50.632;13.700;2023-04-25T02:10:01;4.10;;;1.63;;
75426;SDS011;64007;50.632;13.700;2023-04-25T02:12:27;4.43;;;1.90;;
75426;SDS011;64007;50.632;13.700;2023-04-25T02:14:53;3.38;;;1.65;;
75426;SDS011;64007;50.632;13.700;2023-04-25T02:17:19;2.22;;;1.42;;
75426;SDS011;64007;50.632;13.700;2023-04-25T02:19:46;2.67;;;1.70;;
75426;SDS011;64007;50.632;13.700;2023-04-25T02:22:12;2.60;;;1.40;;
75426;SDS011;64007;50.632;13.700;2023-04-25T02:24:38;3.75;;;1.90;;
75426;SDS011;64007;50.632;13.700;2023-04-25T02:27:04;3.25;;;1.52;;
75426;SDS011;64007;50.632;13.700;2023-04-25T02:29:30;3.17;;;1.55;;
75426;SDS011;64007;50.632;13.700;2023-04-25T02:31:55;2.95;;;1.73;;
75426;SDS011;64007;50.632;13.700;2023-04-25T02:34:22;3.70;;;1.70;;
75426;SDS011;64007;50.632;13.700;2023-04-25T02:36:48;3.72;;;1.67;;
75426;SDS011;64007;50.632;13.700;2023-04-25T02:39:16;2.05;;;1.40;;
75426;SDS011;64007;50.632;13.700;2023-04-25T02:41:42;4.82;;;1.80;;
75426;SDS011;64007;50.632;13.700;2023-04-25T02:44:07;2.95;;;1.67;;
75426;SDS011;64007;50.632;13.700;2023-04-25T02:46:33;3.85;;;1.60;;
75426;SDS011;64007;50.632;13.700;2023-04-25T02:48:59;5.32;;;1.85;;
75426;SDS011;64007;50.632;13.700;2023-04-25T02:51:25;3.17;;;1.63;;
75426;SDS011;64007;50.632;13.700;2023-04-25T02:53:51;5.13;;;1.80;;
75426;SDS011;64007;50.632;13.700;2023-04-25T02:56:17;5.97;;;2.03;;
75426;SDS011;64007;50.632;13.700;2023-04-25T02:58:42;3.88;;;2.00;;
75426;SDS011;64007;50.632;13.700;2023-04-25T03:01:08;4.13;;;2.05;;
75426;SDS011;64007;50.632;13.700;2023-04-25T03:03:34;3.13;;;2.03;;
75426;SDS011;64007;50.632;13.700;2023-04-25T03:06:00;4.18;;;2.35;;
75426;SDS011;64007;50.632;13.700;2023-04-25T03:08:25;6.65;;;2.92;;
75426;SDS011;64007;50.632;13.700;2023-04-25T03:10:54;8.60;;;3.30;;
75426;SDS011;64007;50.632;13.700;2023-04-25T03:13:20;6.50;;;3.10;;
75426;SDS011;64007;50.632;13.700;2023-04-25T03:15:46;6.28;;;3.22;;
75426;SDS011;64007;50.632;13.700;2023-04-25T03:18:12;4.95;;;2.72;;
75426;SDS011;64007;50.632;13.700;2023-04-25T03:20:37;5.60;;;2.70;;
75426;SDS011;64007;50.632;13.700;2023-04-25T03:23:04;6.32;;;3.20;;
75426;SDS011;64007;50.632;13.700;2023-04-25T03:25:30;6.35;;;3.30;;
75426;SDS011;64007;50.632;13.700;2023-04-25T03:27:55;7.30;;;3.10;;
75426;SDS011;64007;50.632;13.700;2023-04-25T03:30:21;5.95;;;2.78;;
75426;SDS011;64007;50.632;13.700;2023-04-25T03:32:47;8.52;;;3.00;;
75426;SDS011;64007;50.632;13.700;2023-04-25T03:35:13;5.50;;;2.92;;
75426;SDS011;64007;50.632;13.700;2023-04-25T03:37:38;5.20;;;3.25;;
75426;SDS011;64007;50.632;13.700;2023-04-25T03:40:06;8.20;;;3.50;;
75426;SDS011;64007;50.632;13.700;2023-04-25T03:42:31;4.80;;;2.72;;
75426;SDS011;64007;50.632;13.700;2023-04-25T03:44:57;6.18;;;2.95;;
75426;SDS011;64007;50.632;13.700;2023-04-25T03:47:23;5.38;;;2.63;;
75426;SDS011;64007;50.632;13.700;2023-04-25T03:49:49;3.75;;;1.95;;
75426;SDS011;64007;50.632;13.700;2023-04-25T03:52:16;3.78;;;1.90;;
75426;SDS011;64007;50.632;13.700;2023-04-25T03:54:43;3.53;;;1.90;;
75426;SDS011;64007;50.632;13.700;2023-04-25T03:57:08;3.60;;;2.00;;
75426;SDS011;64007;50.632;13.700;2023-04-25T03:59:34;5.35;;;1.75;;
75426;SDS011;64007;50.632;13.700;2023-04-25T04:02:00;2.95;;;1.80;;
75426;SDS011;64007;50.632;13.700;2023-04-25T04:04:26;3.92;;;1.90;;
75426;SDS011;64007;50.632;13.700;2023-04-25T04:06:51;3.38;;;1.80;;
75426;SDS011;64007;50.632;13.700;2023-04-25T04:09:18;2.47;;;1.90;;
75426;SDS011;64007;50.632;13.700;2023-04-25T04:11:44;3.45;;;1.95;;
75426;SDS011;64007;50.632;13.700;2023-04-25T04:14:10;3.83;;;1.90;;
75426;SDS011;64007;50.632;13.700;2023-04-25T04:16:35;4.07;;;2.00;;
75426;SDS011;64007;50.632;13.700;2023-04-25T04:19:02;4.18;;;1.92;;
75426;SDS011;64007;50.632;13.700;2023-04-25T04:21:27;3.92;;;1.92;;
75426;SDS011;64007;50.632;13.700;2023-04-25T04:23:53;2.25;;;1.70;;
75426;SDS011;64007;50.632;13.700;2023-04-25T04:26:19;1.92;;;1.50;;
75426;SDS011;64007;50.632;13.700;2023-04-25T04:28:49;5.30;;;1.88;;
75426;SDS011;64007;50.632;13.700;2023-04-25T04:31:16;3.10;;;1.63;;
75426;SDS011;64007;50.632;13.700;2023-04-25T04:33:45;8.77;;;2.05;;
75426;SDS011;64007;50.632;13.700;2023-04-25T04:36:11;3.40;;;1.92;;
75426;SDS011;64007;50.632;13.700;2023-04-25T04:38:37;3.42;;;2.08;;
75426;SDS011;64007;50.632;13.700;2023-04-25T04:41:02;3.30;;;2.05;;
75426;SDS011;64007;50.632;13.700;2023-04-25T04:43:28;3.38;;;2.15;;
75426;SDS011;64007;50.632;13.700;2023-04-25T04:45:54;6.93;;;2.13;;
75426;SDS011;64007;50.632;13.700;2023-04-25T04:48:22;5.57;;;2.38;;
75426;SDS011;64007;50.632;13.700;2023-04-25T04:50:47;7.35;;;2.65;;
75426;SDS011;64007;50.632;13.700;2023-04-25T04:53:13;6.68;;;2.70;;
75426;SDS011;64007;50.632;13.700;2023-04-25T04:55:39;8.00;;;3.00;;
75426;SDS011;64007;50.632;13.700;2023-04-25T04:58:07;6.95;;;2.80;;
75426;SDS011;64007;50.632;13.700;2023-04-25T05:00:33;5.80;;;2.83;;
75426;SDS011;64007;50.632;13.700;2023-04-25T05:02:58;6.40;;;3.08;;
75426;SDS011;64007;50.632;13.700;2023-04-25T05:05:24;7.65;;;3.67;;
75426;SDS011;64007;50.632;13.700;2023-04-25T05:07:50;5.22;;;3.17;;
75426;SDS011;64007;50.632;13.700;2023-04-25T05:10:16;5.28;;;3.28;;
75426;SDS011;64007;50.632;13.700;2023-04-25T05:12:43;5.88;;;2.40;;
75426;SDS011;64007;50.632;13.700;2023-04-25T05:15:09;4.65;;;2.72;;
75426;SDS011;64007;50.632;13.700;2023-04-25T05:17:36;6.47;;;2.63;;
75426;SDS011;64007;50.632;13.700;2023-04-25T05:20:02;4.85;;;3.03;;
75426;SDS011;64007;50.632;13.700;2023-04-25T05:22:29;6.78;;;3.97;;
75426;SDS011;64007;50.632;13.700;2023-04-25T05:24:54;10.65;;;4.65;;
75426;SDS011;64007;50.632;13.700;2023-04-25T05:27:20;10.38;;;4.22;;
75426;SDS011;64007;50.632;13.700;2023-04-25T05:29:45;7.75;;;4.43;;
75426;SDS011;64007;50.632;13.700;2023-04-25T05:32:11;14.77;;;5.57;;
75426;SDS011;64007;50.632;13.700;2023-04-25T05:34:37;13.18;;;5.28;;
75426;SDS011;64007;50.632;13.700;2023-04-25T05:37:03;13.82;;;5.97;;
75426;SDS011;64007;50.632;13.700;2023-04-25T05:39:28;11.10;;;4.78;;
75426;SDS011;64007;50.632;13.700;2023-04-25T05:41:55;15.32;;;5.40;;
75426;SDS011;64007;50.632;13.700;2023-04-25T05:44:20;8.60;;;4.30;;
75426;SDS011;64007;50.632;13.700;2023-04-25T05:46:46;9.93;;;4.65;;
75426;SDS011;64007;50.632;13.700;2023-04-25T05:49:12;9.73;;;4.78;;
75426;SDS011;64007;50.632;13.700;2023-04-25T05:51:38;8.80;;;4.63;;
75426;SDS011;64007;50.632;13.700;2023-04-25T05:54:04;8.68;;;4.60;;
75426;SDS011;64007;50.632;13.700;2023-04-25T05:56:30;10.15;;;4.70;;
75426;SDS011;64007;50.632;13.700;2023-04-25T05:58:55;10.52;;;4.60;;
75426;SDS011;64007;50.632;13.700;2023-04-25T06:01:22;8.80;;;4.65;;
75426;SDS011;64007;50.632;13.700;2023-04-25T06:03:48;13.63;;;5.10;;
75426;SDS011;64007;50.632;13.700;2023-04-25T06:06:14;9.02;;;5.30;;
75426;SDS011;64007;50.632;13.700;2023-04-25T06:08:40;11.45;;;5.43;;
75426;SDS011;64007;50.632;13.700;2023-04-25T06:11:06;8.65;;;4.40;;
75426;SDS011;64007;50.632;13.700;2023-04-25T06:13:32;12.50;;;4.63;;
75426;SDS011;64007;50.632;13.700;2023-04-25T06:15:58;11.60;;;4.93;;
75426;SDS011;64007;50.632;13.700;2023-04-25T06:18:24;14.63;;;5.68;;
75426;SDS011;64007;50.632;13.700;2023-04-25T06:20:50;11.73;;;5.28;;
75426;SDS011;64007;50.632;13.700;2023-04-25T06:23:15;14.07;;;5.18;;
75426;SDS011;64007;50.632;13.700;2023-04-25T06:25:41;11.98;;;5.00;;
75426;SDS011;64007;50.632;13.700;2023-04-25T06:28:06;9.93;;;4.78;;
75426;SDS011;64007;50.632;13.700;2023-04-25T06:30:32;9.15;;;4.95;;
75426;SDS011;64007;50.632;13.700;2023-04-25T06:32:58;10.27;;;4.75;;
75426;SDS011;64007;50.632;13.700;2023-04-25T06:35:24;12.68;;;5.40;;
75426;SDS011;64007;50.632;13.700;2023-04-25T06:37:49;6.90;;;4.45;;
75426;SDS011;64007;50.632;13.700;2023-04-25T06:40:15;12.00;;;5.00;;
75426;SDS011;64007;50.632;13.700;2023-04-25T06:42:42;10.45;;;5.25;;
75426;SDS011;64007;50.632;13.700;2023-04-25T06:45:08;9.93;;;5.20;;
75426;SDS011;64007;50.632;13.700;2023-04-25T06:47:34;9.70;;;5.40;;
75426;SDS011;64007;50.632;13.700;2023-04-25T06:50:00;9.88;;;5.00;;
75426;SDS011;64007;50.632;13.700;2023-04-25T06:52:26;10.60;;;5.43;;
75426;SDS011;64007;50.632;13.700;2023-04-25T06:54:52;9.88;;;5.60;;
75426;SDS011;64007;50.632;13.700;2023-04-25T06:57:17;11.80;;;5.55;;
75426;SDS011;64007;50.632;13.700;2023-04-25T06:59:43;12.90;;;5.97;;
75426;SDS011;64007;50.632;13.700;2023-04-25T07:02:09;16.85;;;5.90;;
75426;SDS011;64007;50.632;13.700;2023-04-25T07:04:36;10.23;;;5.53;;
75426;SDS011;64007;50.632;13.700;2023-04-25T07:07:02;10.13;;;5.10;;
75426;SDS011;64007;50.632;13.700;2023-04-25T07:09:29;14.05;;;5.88;;
75426;SDS011;64007;50.632;13.700;2023-04-25T07:11:55;10.00;;;5.53;;
75426;SDS011;64007;50.632;13.700;2023-04-25T07:14:22;8.30;;;5.03;;
75426;SDS011;64007;50.632;13.700;2023-04-25T07:16:47;13.57;;;4.95;;
75426;SDS011;64007;50.632;13.700;2023-04-25T07:19:13;9.90;;;5.10;;
75426;SDS011;64007;50.632;13.700;2023-04-25T07:21:39;12.68;;;4.70;;
75426;SDS011;64007;50.632;13.700;2023-04-25T07:24:05;9.75;;;4.68;;
75426;SDS011;64007;50.632;13.700;2023-04-25T07:26:30;10.32;;;4.60;;
75426;SDS011;64007;50.632;13.700;2023-04-25T07:28:57;9.48;;;4.30;;
75426;SDS011;64007;50.632;13.700;2023-04-25T07:31:22;8.35;;;4.28;;
75426;SDS011;64007;50.632;13.700;2023-04-25T07:33:48;11.85;;;4.60;;
75426;SDS011;64007;50.632;13.700;2023-04-25T07:36:14;8.07;;;4.40;;
75426;SDS011;64007;50.632;13.700;2023-04-25T07:38:40;15.45;;;4.65;;
75426;SDS011;64007;50.632;13.700;2023-04-25T07:41:06;7.60;;;4.50;;
75426;SDS011;64007;50.632;13.700;2023-04-25T07:43:32;12.30;;;5.03;;
75426;SDS011;64007;50.632;13.700;2023-04-25T07:45:58;9.25;;;4.20;;
75426;SDS011;64007;50.632;13.700;2023-04-25T07:48:24;8.45;;;4.40;;
75426;SDS011;64007;50.632;13.700;2023-04-25T07:50:49;12.52;;;4.05;;
75426;SDS011;64007;50.632;13.700;2023-04-25T07:53:16;9.30;;;4.22;;
75426;SDS011;64007;50.632;13.700;2023-04-25T07:55:43;13.75;;;4.82;;
75426;SDS011;64007;50.632;13.700;2023-04-25T07:58:09;8.85;;;4.13;;
75426;SDS011;64007;50.632;13.700;2023-04-25T08:00:35;6.95;;;4.15;;
75426;SDS011;64007;50.632;13.700;2023-04-25T08:03:01;11.35;;;4.68;;
75426;SDS011;64007;50.632;13.700;2023-04-25T08:05:28;6.07;;;3.90;;
75426;SDS011;64007;50.632;13.700;2023-04-25T08:07:54;9.30;;;4.22;;
75426;SDS011;64007;50.632;13.700;2023-04-25T08:10:20;7.68;;;3.83;;
75426;SDS011;64007;50.632;13.700;2023-04-25T08:12:48;7.63;;;3.05;;
75426;SDS011;64007;50.632;13.700;2023-04-25T08:15:14;4.80;;;2.55;;
75426;SDS011;64007;50.632;13.700;2023-04-25T08:17:39;3.88;;;1.58;;
75426;SDS011;64007;50.632;13.700;2023-04-25T08:20:05;3.90;;;1.70;;
75426;SDS011;64007;50.632;13.700;2023-04-25T08:22:31;2.13;;;1.40;;
75426;SDS011;64007;50.632;13.700;2023-04-25T08:24:57;6.15;;;1.77;;
75426;SDS011;64007;50.632;13.700;2023-04-25T08:27:23;3.42;;;1.48;;
75426;SDS011;64007;50.632;13.700;2023-04-25T08:29:49;3.15;;;1.70;;
75426;SDS011;64007;50.632;13.700;2023-04-25T08:32:16;4.70;;;1.85;;
75426;SDS011;64007;50.632;13.700;2023-04-25T08:34:42;3.85;;;1.60;;
75426;SDS011;64007;50.632;13.700;2023-04-25T08:37:09;4.50;;;1.80;;
75426;SDS011;64007;50.632;13.700;2023-04-25T08:39:35;3.75;;;1.65;;
75426;SDS011;64007;50.632;13.700;2023-04-25T08:42:02;2.65;;;1.33;;
75426;SDS011;64007;50.632;13.700;2023-04-25T08:44:34;2.40;;;1.23;;
75426;SDS011;64007;50.632;13.700;2023-04-25T08:47:03;2.08;;;1.40;;
75426;SDS011;64007;50.632;13.700;2023-04-25T08:49:33;4.35;;;2.08;;
75426;SDS011;64007;50.632;13.700;2023-04-25T08:51:59;4.90;;;1.85;;
75426;SDS011;64007;50.632;13.700;2023-04-25T08:54:27;2.60;;;1.70;;
75426;SDS011;64007;50.632;13.700;2023-04-25T08:56:54;5.38;;;1.55;;
75426;SDS011;64007;50.632;13.700;2023-04-25T08:59:20;2.30;;;1.58;;
75426;SDS011;64007;50.632;13.700;2023-04-25T09:01:48;5.30;;;1.80;;
75426;SDS011;64007;50.632;13.700;2023-04-25T09:04:15;9.45;;;4.22;;
75426;SDS011;64007;50.632;13.700;2023-04-25T09:06:40;3.58;;;1.65;;
75426;SDS011;64007;50.632;13.700;2023-04-25T09:09:07;3.58;;;1.90;;
75426;SDS011;64007;50.632;13.700;2023-04-25T09:11:36;5.40;;;2.15;;
75426;SDS011;64007;50.632;13.700;2023-04-25T09:14:12;4.15;;;1.75;;
75426;SDS011;64007;50.632;13.700;2023-04-25T09:19:27;5.25;;;1.95;;
75426;SDS011;64007;50.632;13.700;2023-04-25T09:21:59;2.58;;;1.60;;
75426;SDS011;64007;50.632;13.700;2023-04-25T09:24:36;2.83;;;1.63;;
75426;SDS011;64007;50.632;13.700;2023-04-25T09:27:07;3.67;;;1.60;;
75426;SDS011;64007;50.632;13.700;2023-04-25T09:29:36;3.58;;;1.90;;
75426;SDS011;64007;50.632;13.700;2023-04-25T09:32:15;3.08;;;1.55;;
75426;SDS011;64007;50.632;13.700;2023-04-25T09:34:46;4.97;;;1.70;;
75426;SDS011;64007;50.632;13.700;2023-04-25T09:37:28;8.18;;;2.00;;
75426;SDS011;64007;50.632;13.700;2023-04-25T09:39:56;5.03;;;1.92;;
75426;SDS011;64007;50.632;13.700;2023-04-25T09:42:30;2.40;;;1.50;;
75426;SDS011;64007;50.632;13.700;2023-04-25T09:44:57;4.22;;;2.05;;
75426;SDS011;64007;50.632;13.700;2023-04-25T09:47:24;4.82;;;1.95;;
75426;SDS011;64007;50.632;13.700;2023-04-25T09:49:52;3.88;;;1.90;;
75426;SDS011;64007;50.632;13.700;2023-04-25T09:52:19;5.85;;;1.83;;
75426;SDS011;64007;50.632;13.700;2023-04-25T09:54:47;2.72;;;1.88;;
75426;SDS011;64007;50.632;13.700;2023-04-25T09:57:17;5.28;;;1.90;;
75426;SDS011;64007;50.632;13.700;2023-04-25T10:02:13;5.38;;;2.10;;
75426;SDS011;64007;50.632;13.700;2023-04-25T10:04:41;7.55;;;1.90;;
75426;SDS011;64007;50.632;13.700;2023-04-25T10:07:07;6.50;;;1.50;;
75426;SDS011;64007;50.632;13.700;2023-04-25T10:09:33;48.25;;;2.80;;
75426;SDS011;64007;50.632;13.700;2023-04-25T10:12:02;8.43;;;1.80;;
75426;SDS011;64007;50.632;13.700;2023-04-25T10:14:32;160.90;;;9.60;;
75426;SDS011;64007;50.632;13.700;2023-04-25T10:16:58;50.80;;;3.70;;
75426;SDS011;64007;50.632;13.700;2023-04-25T10:19:25;60.42;;;4.05;;
75426;SDS011;64007;50.632;13.700;2023-04-25T10:24:23;5.15;;;1.90;;
75426;SDS011;64007;50.632;13.700;2023-04-25T10:26:50;5.68;;;1.70;;
75426;SDS011;64007;50.632;13.700;2023-04-25T10:29:24;16.75;;;4.55;;
75426;SDS011;64007;50.632;13.700;2023-04-25T10:31:50;8.68;;;2.60;;
75426;SDS011;64007;50.632;13.700;2023-04-25T10:34:17;14.48;;;3.58;;
75426;SDS011;64007;50.632;13.700;2023-04-25T10:36:44;6.95;;;1.77;;
75426;SDS011;64007;50.632;13.700;2023-04-25T10:39:15;8.15;;;2.13;;
75426;SDS011;64007;50.632;13.700;2023-04-25T10:41:47;7.90;;;2.10;;
75426;SDS011;64007;50.632;13.700;2023-04-25T10:44:18;4.32;;;2.00;;
75426;SDS011;64007;50.632;13.700;2023-04-25T10:46:44;3.05;;;1.70;;
75426;SDS011;64007;50.632;13.700;2023-04-25T10:49:11;3.55;;;1.67;;
75426;SDS011;64007;50.632;13.700;2023-04-25T10:52:10;6.38;;;1.88;;
75426;SDS011;64007;50.632;13.700;2023-04-25T10:54:40;4.47;;;1.52;;
75426;SDS011;64007;50.632;13.700;2023-04-25T11:00:01;2.80;;;1.30;;
75426;SDS011;64007;50.632;13.700;2023-04-25T11:02:31;2.72;;;1.40;;
75426;SDS011;64007;50.632;13.700;2023-04-25T11:04:57;1.85;;;1.25;;
75426;SDS011;64007;50.632;13.700;2023-04-25T11:10:17;3.42;;;1.25;;
75426;SDS011;64007;50.632;13.700;2023-04-25T11:12:44;4.15;;;1.50;;
75426;SDS011;64007;50.632;13.700;2023-04-25T11:15:12;6.47;;;1.42;;
75426;SDS011;64007;50.632;13.700;2023-04-25T11:17:38;4.07;;;1.30;;
75426;SDS011;64007;50.632;13.700;2023-04-25T11:20:06;4.70;;;1.75;;
75426;SDS011;64007;50.632;13.700;2023-04-25T11:22:37;3.17;;;1.40;;
75426;SDS011;64007;50.632;13.700;2023-04-25T11:25:04;3.85;;;1.17;;
75426;SDS011;64007;50.632;13.700;2023-04-25T11:27:31;2.40;;;0.98;;
75426;SDS011;64007;50.632;13.700;2023-04-25T11:29:57;3.47;;;1.30;;
75426;SDS011;64007;50.632;13.700;2023-04-25T11:32:22;1.67;;;1.17;;
75426;SDS011;64007;50.632;13.700;2023-04-25T11:34:49;2.63;;;1.13;;
75426;SDS011;64007;50.632;13.700;2023-04-25T11:37:14;3.35;;;1.05;;
75426;SDS011;64007;50.632;13.700;2023-04-25T11:39:44;4.43;;;1.10;;
75426;SDS011;64007;50.632;13.700;2023-04-25T11:42:11;5.20;;;1.33;;
75426;SDS011;64007;50.632;13.700;2023-04-25T11:44:38;3.30;;;1.20;;
75426;SDS011;64007;50.632;13.700;2023-04-25T11:47:05;3.03;;;1.45;;
75426;SDS011;64007;50.632;13.700;2023-04-25T11:49:31;3.63;;;1.08;;
75426;SDS011;64007;50.632;13.700;2023-04-25T11:51:57;1.80;;;0.95;;
75426;SDS011;64007;50.632;13.700;2023-04-25T11:54:23;1.80;;;1.20;;
75426;SDS011;64007;50.632;13.700;2023-04-25T11:56:49;4.13;;;1.23;;
75426;SDS011;64007;50.632;13.700;2023-04-25T11:59:14;1.60;;;1.23;;
75426;SDS011;64007;50.632;13.700;2023-04-25T12:01:47;1.58;;;1.13;;
75426;SDS011;64007;50.632;13.700;2023-04-25T12:06:41;3.63;;;1.50;;
75426;SDS011;64007;50.632;13.700;2023-04-25T12:09:09;2.25;;;1.52;;
75426;SDS011;64007;50.632;13.700;2023-04-25T12:11:43;1.77;;;1.33;;
75426;SDS011;64007;50.632;13.700;2023-04-25T12:14:29;1.80;;;1.40;;
75426;SDS011;64007;50.632;13.700;2023-04-25T12:16:58;5.00;;;1.88;;
75426;SDS011;64007;50.632;13.700;2023-04-25T12:19:25;3.85;;;2.10;;
75426;SDS011;64007;50.632;13.700;2023-04-25T12:21:52;6.03;;;2.70;;
75426;SDS011;64007;50.632;13.700;2023-04-25T12:24:21;5.75;;;2.25;;
75426;SDS011;64007;50.632;13.700;2023-04-25T12:26:52;6.55;;;2.17;;
75426;SDS011;64007;50.632;13.700;2023-04-25T12:29:24;4.25;;;2.40;;
75426;SDS011;64007;50.632;13.700;2023-04-25T12:31:51;5.50;;;2.40;;
75426;SDS011;64007;50.632;13.700;2023-04-25T12:34:21;5.70;;;2.88;;
75426;SDS011;64007;50.632;13.700;2023-04-25T12:36:49;4.15;;;2.70;;
75426;SDS011;64007;50.632;13.700;2023-04-25T12:39:23;4.00;;;2.30;;
75426;SDS011;64007;50.632;13.700;2023-04-25T12:41:53;8.50;;;3.30;;
75426;SDS011;64007;50.632;13.700;2023-04-25T12:44:19;9.07;;;2.95;;
75426;SDS011;64007;50.632;13.700;2023-04-25T12:46:46;4.43;;;2.85;;
75426;SDS011;64007;50.632;13.700;2023-04-25T12:49:12;4.88;;;2.90;;
75426;SDS011;64007;50.632;13.700;2023-04-25T12:51:39;4.10;;;2.20;;
75426;SDS011;64007;50.632;13.700;2023-04-25T12:54:05;3.72;;;2.65;;
75426;SDS011;64007;50.632;13.700;2023-04-25T12:56:32;7.45;;;3.15;;
75426;SDS011;64007;50.632;13.700;2023-04-25T12:58:58;5.05;;;2.80;;
75426;SDS011;64007;50.632;13.700;2023-04-25T13:01:24;5.28;;;3.25;;
75426;SDS011;64007;50.632;13.700;2023-04-25T13:03:51;5.90;;;2.38;;
75426;SDS011;64007;50.632;13.700;2023-04-25T13:06:18;5.35;;;2.20;;
75426;SDS011;64007;50.632;13.700;2023-04-25T13:08:44;4.35;;;2.22;;
75426;SDS011;64007;50.632;13.700;2023-04-25T13:11:10;4.20;;;2.40;;
75426;SDS011;64007;50.632;13.700;2023-04-25T13:13:37;3.67;;;2.42;;
75426;SDS011;64007;50.632;13.700;2023-04-25T13:16:05;3.67;;;2.00;;
75426;SDS011;64007;50.632;13.700;2023-04-25T13:18:32;3.80;;;1.92;;
75426;SDS011;64007;50.632;13.700;2023-04-25T13:20:58;5.68;;;2.10;;
75426;SDS011;64007;50.632;13.700;2023-04-25T13:23:25;4.00;;;2.15;;
75426;SDS011;64007;50.632;13.700;2023-04-25T13:25:52;5.57;;;3.15;;
75426;SDS011;64007;50.632;13.700;2023-04-25T13:28:18;3.60;;;2.20;;
75426;SDS011;64007;50.632;13.700;2023-04-25T13:30:44;4.22;;;2.25;;
75426;SDS011;64007;50.632;13.700;2023-04-25T13:33:10;5.57;;;2.13;;
75426;SDS011;64007;50.632;13.700;2023-04-25T13:35:37;4.03;;;2.13;;
75426;SDS011;64007;50.632;13.700;2023-04-25T13:38:03;5.22;;;2.42;;
75426;SDS011;64007;50.632;13.700;2023-04-25T13:40:30;4.47;;;2.03;;
75426;SDS011;64007;50.632;13.700;2023-04-25T13:42:57;6.22;;;2.47;;
75426;SDS011;64007;50.632;13.700;2023-04-25T13:45:23;4.40;;;2.42;;
75426;SDS011;64007;50.632;13.700;2023-04-25T13:47:49;5.85;;;2.78;;
75426;SDS011;64007;50.632;13.700;2023-04-25T13:50:15;5.03;;;2.70;;
75426;SDS011;64007;50.632;13.700;2023-04-25T13:52:41;4.72;;;2.80;;
75426;SDS011;64007;50.632;13.700;2023-04-25T13:55:09;3.58;;;2.50;;
75426;SDS011;64007;50.632;13.700;2023-04-25T13:57:35;5.43;;;2.65;;
75426;SDS011;64007;50.632;13.700;2023-04-25T14:00:03;4.32;;;2.40;;
75426;SDS011;64007;50.632;13.700;2023-04-25T14:02:36;4.90;;;2.47;;
75426;SDS011;64007;50.632;13.700;2023-04-25T14:05:03;5.38;;;2.33;;
75426;SDS011;64007;50.632;13.700;2023-04-25T14:07:30;9.85;;;2.53;;
75426;SDS011;64007;50.632;13.700;2023-04-25T14:09:56;3.72;;;2.38;;
75426;SDS011;64007;50.632;13.700;2023-04-25T14:12:25;5.00;;;2.15;;
75426;SDS011;64007;50.632;13.700;2023-04-25T14:14:51;5.68;;;2.03;;
75426;SDS011;64007;50.632;13.700;2023-04-25T14:17:19;4.95;;;1.90;;
75426;SDS011;64007;50.632;13.700;2023-04-25T14:19:45;9.50;;;2.03;;
75426;SDS011;64007;50.632;13.700;2023-04-25T14:22:13;3.97;;;1.83;;
75426;SDS011;64007;50.632;13.700;2023-04-25T14:24:39;8.43;;;2.20;;
75426;SDS011;64007;50.632;13.700;2023-04-25T14:27:05;7.43;;;2.38;;
75426;SDS011;64007;50.632;13.700;2023-04-25T14:29:31;5.05;;;2.00;;
75426;SDS011;64007;50.632;13.700;2023-04-25T14:31:56;7.95;;;2.10;;
75426;SDS011;64007;50.632;13.700;2023-04-25T14:34:24;4.38;;;2.40;;
75426;SDS011;64007;50.632;13.700;2023-04-25T14:36:51;7.28;;;2.25;;
75426;SDS011;64007;50.632;13.700;2023-04-25T14:39:17;6.20;;;1.90;;
75426;SDS011;64007;50.632;13.700;2023-04-25T14:41:43;5.35;;;2.10;;
75426;SDS011;64007;50.632;13.700;2023-04-25T14:44:10;7.50;;;2.10;;
75426;SDS011;64007;50.632;13.700;2023-04-25T14:46:35;5.93;;;1.88;;